首页
METAR-TAF:

METAR-TAF

机场 :

西哥奈拉基地

Sigonella, 意大利

纬度: 37-24N, 经度: 014-55E, 海拔: 22米

当前天气观测

该预报发布于23分钟前的09:55 UTC
风速4节,风向西北
温度 17°C
湿度 82%
气压 1017 hPa
能见度10公里或以上
1500米以下无云,无积雨云

METAR: LICZ 220955Z 31004KT CAVOK 17/14 Q1017 RMK FEW FEW200 VIS MIN 9999 WIND THR28 30004KT WIND THR10 /////KT A3005 BLU

时间: 11:18 (10:18 UTC)

预报

该预报发布于5小时和18分钟前的05:00 UTC
预报有效从22日的 06点(UTC)到 23日的 06点(UTC)
风速5节,风向西
能见度10公里或以上
1500米以下无云,无积雨云
成为
从 22日的 16点(UTC)到 22日的 18点(UTC)
能见度10公里或以上
散云层高于3000英尺

TAF: LICZ 220500Z 2206/2306 26005KT CAVOK BECMG 2216/2218 9999 SCT030

超过4000个机场的气象观测和天气预报(METAR&TAF报告)。

可查询的气象台以黄色和红色小点在地图上表示。

将鼠标移到小点上方,可查看气象台名称。

然后点击查看天气观测和预报。

如需切换地图:点击带黑十字的绿色按钮放大地图;点击带横线的绿色按钮缩小地图;或者点击绿色箭头查看邻近地区的地图。


METAR-TAF: